Time;durP1;ratioP1;P1;durP2;ratioP2;P2;SDS_P1;SDS_P2;PMS_P1;PMS_P2;Temp;Humidity;BMP_temperature;BMP_pressure;BME280_temperature;BME280_humidity;BME280_pressure;Samples;Min_cycle;Max_cycle;Signal;HPM_P1;HPM_P2
2021/01/19 00:01:23;;;;;;;169.5;98.7;;;;;;;-6.44;76.68262;98888.78;;;;
2021/01/19 00:11:21;;;;;;;166;100.3;;;;;;;-6.41;77.14453;98865.63;;;;
2021/01/19 00:21:18;;;;;;;135;89.3;;;;;;;-6.27;76.4209;98869.13;;;;
2021/01/19 00:31:15;;;;;;;117.9;80.3;;;;;;;-6.46;76.52734;98856.72;;;;
2021/01/19 00:41:12;;;;;;;112.9;76.5;;;;;;;-6.53;77.73926;98854.06;;;;
2021/01/19 00:51:09;;;;;;;136.7;84.8;;;;;;;-6.42;78.0752;98853.5;;;;
2021/01/19 01:01:06;;;;;;;139.1;89.5;;;;;;;-6.3;77.74805;98843.3;;;;
2021/01/19 01:11:03;;;;;;;138.6;86.9;;;;;;;-6.32;78.40723;98830.39;;;;
2021/01/19 01:21:01;;;;;;;126.1;80.2;;;;;;;-6.17;77.53418;98832.87;;;;
2021/01/19 01:30:57;;;;;;;124;79.9;;;;;;;-6.18;77.87891;98826.03;;;;
2021/01/19 01:40:54;;;;;;;133.9;88.4;;;;;;;-6.07;78.12695;98806.3;;;;
2021/01/19 01:50:51;;;;;;;111.7;80.4;;;;;;;-5.97;78.26465;98793.63;;;;
2021/01/19 02:00:48;;;;;;;128.9;81.8;;;;;;;-5.95;78.40918;98773.23;;;;
2021/01/19 02:10:46;;;;;;;121.1;80.5;;;;;;;-5.88;78.53223;98769.63;;;;
2021/01/19 02:20:43;;;;;;;127.7;85.3;;;;;;;-5.7;78.47852;98764.59;;;;
2021/01/19 02:30:40;;;;;;;147.5;90.6;;;;;;;-5.66;78.47656;98760.54;;;;
2021/01/19 02:40:37;;;;;;;132.1;87.7;;;;;;;-5.7;79.42285;98745.41;;;;
2021/01/19 02:50:34;;;;;;;139;95.6;;;;;;;-5.58;79.58594;98738.55;;;;
2021/01/19 03:00:31;;;;;;;138.5;90.5;;;;;;;-5.55;79.9834;98730.27;;;;
2021/01/19 03:20:27;;;;;;;152.8;101.2;;;;;;;-5.31;80.23535;98718.38;;;;
2021/01/19 03:30:23;;;;;;;148.2;97.9;;;;;;;-5.17;80.28223;98704.23;;;;
2021/01/19 03:40:20;;;;;;;151.5;110.3;;;;;;;-5.1;80.33105;98716.31;;;;
2021/01/19 03:50:17;;;;;;;158.1;109.9;;;;;;;-4.98;80.4375;98702.56;;;;
2021/01/19 04:00:15;;;;;;;161.1;109.7;;;;;;;-4.92;80.91895;98705.17;;;;
2021/01/19 04:10:12;;;;;;;139.8;89.3;;;;;;;-4.66;84.88965;98688.53;;;;
2021/01/19 04:20:09;;;;;;;136.2;93.6;;;;;;;-4.45;82.44336;98704.04;;;;
2021/01/19 04:30:08;;;;;;;74.1;50.1;;;;;;;-4.04;87.63281;98689.66;;;;
2021/01/19 04:40:04;;;;;;;33.1;22.5;;;;;;;-3.37;92.33105;98696.91;;;;
2021/01/19 04:50:01;;;;;;;18.5;13.1;;;;;;;-2.97;92.01563;98690.23;;;;
2021/01/19 04:59:58;;;;;;;16.3;10.3;;;;;;;-2.67;91.41504;98687.68;;;;
2021/01/19 05:09:56;;;;;;;18.9;11.6;;;;;;;-2.41;90.61035;98679.47;;;;
2021/01/19 05:19:53;;;;;;;17.9;10.5;;;;;;;-2.24;90.58301;98691.03;;;;
2021/01/19 05:29:51;;;;;;;23.8;12.9;;;;;;;-2.12;90.41113;98702.44;;;;
2021/01/19 05:39:48;;;;;;;15.2;11.1;;;;;;;-1.99;90.37207;98698.83;;;;
2021/01/19 05:49:46;;;;;;;13.3;10.4;;;;;;;-1.97;90.5293;98695.95;;;;
2021/01/19 05:59:43;;;;;;;15.3;9.2;;;;;;;-1.86;90.0957;98696;;;;
2021/01/19 06:09:41;;;;;;;15.9;10.8;;;;;;;-1.73;89.84863;98705.56;;;;
2021/01/19 06:19:40;;;;;;;14.2;12.2;;;;;;;-1.74;90.46875;98685.48;;;;
2021/01/19 06:29:36;;;;;;;16.7;10.5;;;;;;;-1.64;90.45703;98691.02;;;;
2021/01/19 06:39:42;;;;;;;15.6;10.5;;;;;;;-1.64;90.73242;98691.83;;;;
2021/01/19 06:49:35;;;;;;;15.6;9.9;;;;;;;-1.48;90.47168;98685.06;;;;
2021/01/19 06:59:29;;;;;;;15.3;11;;;;;;;-1.37;89.99121;98694.86;;;;
2021/01/19 07:09:26;;;;;;;18.4;12.4;;;;;;;-1.24;89.81055;98693.83;;;;
2021/01/19 07:19:24;;;;;;;16.5;13.1;;;;;;;-1.2;89.7959;98705.56;;;;
2021/01/19 07:29:22;;;;;;;14.7;11.4;;;;;;;-1.04;89.27246;98715.45;;;;
2021/01/19 07:39:20;;;;;;;15.3;12.4;;;;;;;-1.01;88.8877;98705.22;;;;
2021/01/19 07:49:17;;;;;;;16.2;12.4;;;;;;;-0.86;88.45605;98698.66;;;;
2021/01/19 07:59:14;;;;;;;18;12.7;;;;;;;-0.57;87.11426;98700.36;;;;
2021/01/19 08:09:12;;;;;;;14.7;11.4;;;;;;;-0.3;86.45605;98700.64;;;;
2021/01/19 08:19:10;;;;;;;18.5;13.1;;;;;;;-0.36;86.88379;98686.51;;;;
2021/01/19 08:29:08;;;;;;;14.3;10.7;;;;;;;-0.27;87.03418;98685.09;;;;
2021/01/19 08:39:05;;;;;;;18;12.3;;;;;;;-0.11;86.0459;98692.31;;;;
2021/01/19 08:49:03;;;;;;;15.1;11.8;;;;;;;0.36;84.34863;98689.43;;;;
2021/01/19 08:59:01;;;;;;;16.1;13.1;;;;;;;0.63;83.8623;98697.56;;;;
2021/01/19 09:08:59;;;;;;;25.7;12.7;;;;;;;1.06;82.52734;98689.77;;;;
2021/01/19 09:18:57;;;;;;;19.5;13.3;;;;;;;1.06;81.25879;98694.27;;;;
2021/01/19 09:28:55;;;;;;;21.5;12.5;;;;;;;1.01;80.95313;98705.59;;;;
2021/01/19 09:38:53;;;;;;;19.2;14;;;;;;;1.43;80.16113;98711.24;;;;
2021/01/19 09:48:50;;;;;;;22.7;16;;;;;;;1.24;81.2832;98694.81;;;;
2021/01/19 09:58:48;;;;;;;15.4;11.1;;;;;;;1.05;82.7334;98703.26;;;;
2021/01/19 10:08:50;;;;;;;17.2;12.7;;;;;;;0.82;83.41699;98678.53;;;;
2021/01/19 10:18:44;;;;;;;17.7;14;;;;;;;0.6;85.33105;98672.34;;;;
2021/01/19 10:28:44;;;;;;;18.7;14.2;;;;;;;0.68;85.52246;98660.53;;;;
2021/01/19 10:38:40;;;;;;;14.9;11.2;;;;;;;0.96;84.07227;98645.31;;;;
2021/01/19 10:48:38;;;;;;;19.1;13.8;;;;;;;1.34;83.23145;98625.11;;;;
2021/01/19 10:58:35;;;;;;;20.4;14.5;;;;;;;1.27;82.47949;98622.64;;;;
2021/01/19 11:08:33;;;;;;;15.2;9.5;;;;;;;1.72;81.65137;98606.44;;;;
2021/01/19 11:18:34;;;;;;;11.4;8.8;;;;;;;1.85;80.93555;98602.56;;;;
2021/01/19 11:28:32;;;;;;;14;10.5;;;;;;;1.89;80.01563;98588.53;;;;
2021/01/19 11:38:27;;;;;;;11.2;8.7;;;;;;;1.77;79.30762;98568.5;;;;
2021/01/19 11:48:25;;;;;;;13.6;9.8;;;;;;;2.25;77.43945;98567.59;;;;
2021/01/19 11:58:23;;;;;;;21;12.3;;;;;;;2.37;76.70801;98562.88;;;;
2021/01/19 12:08:21;;;;;;;15.8;12;;;;;;;2.32;75.83594;98534.42;;;;
2021/01/19 12:18:19;;;;;;;17;10.9;;;;;;;2.8;74.06836;98527.25;;;;
2021/01/19 12:28:17;;;;;;;14.2;11.7;;;;;;;3.01;72.38672;98524.44;;;;
2021/01/19 12:38:16;;;;;;;13.9;11.7;;;;;;;2.87;71.87305;98507.34;;;;
2021/01/19 12:48:13;;;;;;;16;11.4;;;;;;;3.15;71.1416;98492.8;;;;
2021/01/19 12:58:12;;;;;;;13.8;10.9;;;;;;;3.24;70.50293;98477.91;;;;
2021/01/19 13:08:10;;;;;;;21.2;17;;;;;;;3.2;70.39551;98471.5;;;;
2021/01/19 13:18:08;;;;;;;16.7;13.7;;;;;;;2.64;71.85645;98472.37;;;;
2021/01/19 13:28:06;;;;;;;20.3;16.3;;;;;;;2.5;71.89844;98472;;;;
2021/01/19 13:38:04;;;;;;;19.8;18;;;;;;;2.3;71.96582;98471.89;;;;
2021/01/19 13:48:02;;;;;;;14.3;9.9;;;;;;;1.91;72.66504;98461.52;;;;
2021/01/19 13:58:00;;;;;;;13.8;9.7;;;;;;;1.79;73.13086;98444.16;;;;
2021/01/19 14:07:58;;;;;;;14;10.6;;;;;;;1.62;73.82227;98444.3;;;;
2021/01/19 14:17:56;;;;;;;14.8;11.7;;;;;;;1.46;74.83398;98435.39;;;;
2021/01/19 14:27:54;;;;;;;20;11.2;;;;;;;1.31;75.42578;98423.84;;;;
2021/01/19 14:37:52;;;;;;;12.8;11.4;;;;;;;1.21;76.04688;98421.09;;;;
2021/01/19 14:47:50;;;;;;;15.7;12.4;;;;;;;1.19;75.7666;98396.64;;;;
2021/01/19 14:57:48;;;;;;;27.7;17.3;;;;;;;1.15;76.04883;98396.34;;;;
2021/01/19 15:07:46;;;;;;;16.9;12.2;;;;;;;1.07;76.1543;98390.7;;;;
2021/01/19 15:17:44;;;;;;;13.3;10.6;;;;;;;0.93;76.42969;98383.15;;;;
2021/01/19 15:27:41;;;;;;;20.8;17.4;;;;;;;0.77;76.83008;98376.06;;;;
2021/01/19 15:37:39;;;;;;;17.1;12.2;;;;;;;0.53;76.78613;98366.78;;;;
2021/01/19 15:47:39;;;;;;;15.5;10.9;;;;;;;0.32;77.80469;98362.28;;;;
2021/01/19 15:57:35;;;;;;;19.1;12.6;;;;;;;0.05;77.99805;98350.81;;;;
2021/01/19 16:07:33;;;;;;;22.5;18.7;;;;;;;-0.18;79.7832;98323.52;;;;
2021/01/19 16:17:33;;;;;;;26.9;23.4;;;;;;;-0.33;80.08203;98322.5;;;;
2021/01/19 16:27:28;;;;;;;25.6;18.2;;;;;;;-0.33;80.50195;98304.77;;;;
2021/01/19 16:37:26;;;;;;;40.5;33.2;;;;;;;-0.29;81.3877;98284.7;;;;
2021/01/19 16:47:24;;;;;;;59.7;41.2;;;;;;;-0.22;81.75391;98264.15;;;;
2021/01/19 16:57:22;;;;;;;41.2;32.8;;;;;;;-0.09;81.72363;98233.84;;;;
2021/01/19 17:07:19;;;;;;;43.5;29.6;;;;;;;-0.06;82.47754;98218.25;;;;
2021/01/19 17:17:17;;;;;;;40.1;31.6;;;;;;;-0.05;81.99512;98188.08;;;;
2021/01/19 17:27:15;;;;;;;34.1;30.3;;;;;;;-0.02;81.1875;98187.58;;;;
2021/01/19 17:37:13;;;;;;;48.5;33.9;;;;;;;-0.26;81.80078;98173.01;;;;
2021/01/19 17:47:11;;;;;;;44.9;33.2;;;;;;;-0.19;81.28711;98159.57;;;;
2021/01/19 17:57:08;;;;;;;68.2;49.1;;;;;;;-0.25;81.1875;98155.28;;;;
2021/01/19 18:07:06;;;;;;;37.2;29.6;;;;;;;-0.26;80.98535;98156.31;;;;
2021/01/19 18:17:04;;;;;;;36.2;25.9;;;;;;;-0.06;80.48828;98146.73;;;;
2021/01/19 18:27:02;;;;;;;99.8;70.4;;;;;;;-0.03;80.71289;98148.88;;;;
2021/01/19 18:37:00;;;;;;;40.7;34.4;;;;;;;0.02;80.69922;98152.64;;;;
2021/01/19 18:46:57;;;;;;;21.5;19.2;;;;;;;0.23;77.71289;98147.28;;;;
2021/01/19 18:56:55;;;;;;;22.8;17.5;;;;;;;0.66;74.43945;98148.94;;;;
2021/01/19 19:06:54;;;;;;;24.1;15.2;;;;;;;0.83;73.23242;98146.17;;;;
2021/01/19 19:16:53;;;;;;;17;12.8;;;;;;;1.11;69.87598;98143.13;;;;
2021/01/19 19:26:49;;;;;;;17.2;12.7;;;;;;;1.16;69.83984;98127.25;;;;
2021/01/19 19:36:47;;;;;;;23.8;12.8;;;;;;;1.15;69.58301;98130.15;;;;
2021/01/19 19:46:44;;;;;;;24.8;20.2;;;;;;;1.13;69.61328;98140.23;;;;
2021/01/19 19:56:42;;;;;;;20.3;17.5;;;;;;;1.18;68.96875;98132.31;;;;
2021/01/19 20:06:40;;;;;;;26.8;12.4;;;;;;;1.27;67.25684;98128.09;;;;
2021/01/19 20:16:38;;;;;;;15.2;10.9;;;;;;;1.33;67.7207;98124.41;;;;
2021/01/19 20:26:36;;;;;;;10.2;7.1;;;;;;;1.47;67.55371;98112.25;;;;
2021/01/19 20:36:34;;;;;;;9;5.8;;;;;;;1.53;68.49512;98117.31;;;;
2021/01/19 20:46:34;;;;;;;9.5;6.3;;;;;;;1.43;70.63672;98113.82;;;;
2021/01/19 20:56:30;;;;;;;13.2;6.2;;;;;;;1.4;71.73828;98120.45;;;;
2021/01/19 21:06:28;;;;;;;11.2;7.6;;;;;;;1.32;73.49219;98117.52;;;;
2021/01/19 21:16:26;;;;;;;10.7;7.1;;;;;;;1.33;73.68262;98124.41;;;;
2021/01/19 21:26:25;;;;;;;9.7;6.2;;;;;;;1.25;74.50879;98116.95;;;;
2021/01/19 21:36:22;;;;;;;12.5;6.5;;;;;;;1.21;75.04199;98124.63;;;;
2021/01/19 21:46:20;;;;;;;13.6;7.3;;;;;;;1.2;75.70313;98122.22;;;;
2021/01/19 21:56:18;;;;;;;10.7;7.5;;;;;;;1.08;76.66504;98119.77;;;;
2021/01/19 22:06:16;;;;;;;13;5.9;;;;;;;1.05;77.62988;98111.52;;;;
2021/01/19 22:16:15;;;;;;;10.2;7.1;;;;;;;0.97;78.19043;98100.34;;;;
2021/01/19 22:26:12;;;;;;;13.2;7.6;;;;;;;0.99;77.55371;98092.94;;;;
2021/01/19 22:36:10;;;;;;;13;7.8;;;;;;;0.92;77.77246;98094.22;;;;
2021/01/19 22:46:08;;;;;;;13.6;8.3;;;;;;;0.88;78.69238;98099.23;;;;
2021/01/19 22:56:06;;;;;;;13.3;9.2;;;;;;;0.79;80.31543;98105.29;;;;
2021/01/19 23:06:04;;;;;;;14.5;9.1;;;;;;;0.78;80.63477;98115.09;;;;
2021/01/19 23:16:02;;;;;;;14;9.2;;;;;;;0.69;81.33203;98119.29;;;;
2021/01/19 23:26:00;;;;;;;17.5;11.3;;;;;;;0.78;81.58203;98115.09;;;;
2021/01/19 23:35:58;;;;;;;14.3;10.1;;;;;;;0.73;82.63965;98125.66;;;;
2021/01/19 23:45:55;;;;;;;9.7;7.4;;;;;;;0.66;83.84766;98095.91;;;;
2021/01/19 23:55:53;;;;;;;11.3;9.4;;;;;;;0.63;84.48926;98103.58;;;;
